sensor_id;sensor_type;location;lat;lon;timestamp;pressure;altitude;pressure_sealevel;temperature;humidity
69528;BME280;57136;51.986;4.468;2022-10-28T00:01:01;101771.06;;;16.28;100.00
69528;BME280;57136;51.986;4.468;2022-10-28T00:03:26;101764.06;;;16.24;100.00
69528;BME280;57136;51.986;4.468;2022-10-28T00:05:51;101770.22;;;16.23;100.00
69528;BME280;57136;51.986;4.468;2022-10-28T00:08:18;101755.31;;;16.15;100.00
69528;BME280;57136;51.986;4.468;2022-10-28T00:10:43;101761.47;;;16.16;100.00
69528;BME280;57136;51.986;4.468;2022-10-28T00:13:09;101757.09;;;16.16;100.00
69528;BME280;57136;51.986;4.468;2022-10-28T00:15:34;101764.09;;;16.16;100.00
69528;BME280;57136;51.986;4.468;2022-10-28T00:18:00;101758.84;;;16.16;100.00
69528;BME280;57136;51.986;4.468;2022-10-28T00:20:25;101758.81;;;16.22;100.00
69528;BME280;57136;51.986;4.468;2022-10-28T00:22:51;101757.91;;;16.23;100.00
69528;BME280;57136;51.986;4.468;2022-10-28T00:25:16;101756.19;;;16.24;100.00
69528;BME280;57136;51.986;4.468;2022-10-28T00:27:41;101755.31;;;16.22;100.00
69528;BME280;57136;51.986;4.468;2022-10-28T00:30:08;101757.06;;;16.20;100.00
69528;BME280;57136;51.986;4.468;2022-10-28T00:32:33;101763.22;;;16.15;100.00
69528;BME280;57136;51.986;4.468;2022-10-28T00:34:59;101768.50;;;16.12;100.00
69528;BME280;57136;51.986;4.468;2022-10-28T00:37:24;101772.91;;;16.09;100.00
69528;BME280;57136;51.986;4.468;2022-10-28T00:39:49;101756.25;;;16.07;100.00
69528;BME280;57136;51.986;4.468;2022-10-28T00:42:18;101765.88;;;16.05;100.00
69528;BME280;57136;51.986;4.468;2022-10-28T00:53:08;101750.16;;;15.97;100.00
69528;BME280;57136;51.986;4.468;2022-10-28T00:55:35;101755.41;;;15.94;100.00
69528;BME280;57136;51.986;4.468;2022-10-28T00:58:01;101749.28;;;15.88;100.00
69528;BME280;57136;51.986;4.468;2022-10-28T01:00:28;101753.69;;;15.86;100.00
69528;BME280;57136;51.986;4.468;2022-10-28T01:02:54;101751.91;;;15.78;100.00
69528;BME280;57136;51.986;4.468;2022-10-28T01:05:22;101749.28;;;15.82;100.00
69528;BME280;57136;51.986;4.468;2022-10-28T01:07:54;101744.00;;;15.82;100.00
69528;BME280;57136;51.986;4.468;2022-10-28T01:10:29;101739.66;;;15.87;100.00
69528;BME280;57136;51.986;4.468;2022-10-28T01:13:14;101741.44;;;15.87;100.00
69528;BME280;57136;51.986;4.468;2022-10-28T01:18:27;101738.78;;;15.88;100.00
69528;BME280;57136;51.986;4.468;2022-10-28T01:21:06;101733.50;;;15.85;100.00
69528;BME280;57136;51.986;4.468;2022-10-28T01:24:11;101730.00;;;15.83;100.00
69528;BME280;57136;51.986;4.468;2022-10-28T01:29:56;101730.91;;;15.78;100.00
69528;BME280;57136;51.986;4.468;2022-10-28T01:32:31;101727.41;;;15.74;100.00
69528;BME280;57136;51.986;4.468;2022-10-28T01:35:11;101730.03;;;15.74;100.00
69528;BME280;57136;51.986;4.468;2022-10-28T01:37:56;101732.69;;;15.71;100.00
69528;BME280;57136;51.986;4.468;2022-10-28T01:45:59;101723.06;;;15.67;100.00
69528;BME280;57136;51.986;4.468;2022-10-28T01:48:34;101722.19;;;15.65;100.00
69528;BME280;57136;51.986;4.468;2022-10-28T01:51:07;101723.03;;;15.62;100.00
69528;BME280;57136;51.986;4.468;2022-10-28T01:53:38;101721.28;;;15.64;100.00
69528;BME280;57136;51.986;4.468;2022-10-28T01:56:11;101720.41;;;15.65;100.00
69528;BME280;57136;51.986;4.468;2022-10-28T01:58:40;101715.19;;;15.61;100.00
69528;BME280;57136;51.986;4.468;2022-10-28T02:01:08;101707.31;;;15.59;100.00
69528;BME280;57136;51.986;4.468;2022-10-28T02:03:34;101704.69;;;15.59;100.00
69528;BME280;57136;51.986;4.468;2022-10-28T02:06:03;101699.41;;;15.57;100.00
69528;BME280;57136;51.986;4.468;2022-10-28T02:11:31;101713.41;;;15.66;100.00
69528;BME280;57136;51.986;4.468;2022-10-28T02:14:25;101707.28;;;15.62;100.00
69528;BME280;57136;51.986;4.468;2022-10-28T02:22:27;101692.44;;;15.52;100.00
69528;BME280;57136;51.986;4.468;2022-10-28T02:25:08;101695.03;;;15.53;100.00
69528;BME280;57136;51.986;4.468;2022-10-28T02:27:52;101693.28;;;15.55;100.00
69528;BME280;57136;51.986;4.468;2022-10-28T02:30:24;101701.19;;;15.54;100.00
69528;BME280;57136;51.986;4.468;2022-10-28T02:32:56;101709.06;;;15.55;100.00
69528;BME280;57136;51.986;4.468;2022-10-28T02:35:45;101709.94;;;15.51;100.00
69528;BME280;57136;51.986;4.468;2022-10-28T02:38:17;101708.19;;;15.50;100.00
69528;BME280;57136;51.986;4.468;2022-10-28T02:40:46;101704.72;;;15.39;100.00
69528;BME280;57136;51.986;4.468;2022-10-28T02:43:13;101706.47;;;15.34;100.00
69528;BME280;57136;51.986;4.468;2022-10-28T02:45:42;101698.63;;;15.15;100.00
69528;BME280;57136;51.986;4.468;2022-10-28T02:48:18;101699.47;;;15.23;100.00
69528;BME280;57136;51.986;4.468;2022-10-28T02:50:50;101692.50;;;15.19;100.00
69528;BME280;57136;51.986;4.468;2022-10-28T02:53:20;101692.47;;;15.25;100.00
69528;BME280;57136;51.986;4.468;2022-10-28T02:55:51;101681.09;;;15.23;100.00
69528;BME280;57136;51.986;4.468;2022-10-28T02:58:18;101681.09;;;15.19;100.00
69528;BME280;57136;51.986;4.468;2022-10-28T03:00:47;101680.22;;;15.21;100.00
69528;BME280;57136;51.986;4.468;2022-10-28T03:03:14;101681.97;;;15.28;100.00
69528;BME280;57136;51.986;4.468;2022-10-28T03:05:39;101682.84;;;15.31;100.00
69528;BME280;57136;51.986;4.468;2022-10-28T03:08:04;101681.97;;;15.30;100.00
69528;BME280;57136;51.986;4.468;2022-10-28T03:10:30;101680.22;;;15.24;100.00
69528;BME280;57136;51.986;4.468;2022-10-28T03:12:55;101676.72;;;15.27;100.00
69528;BME280;57136;51.986;4.468;2022-10-28T03:15:20;101681.97;;;15.30;100.00
69528;BME280;57136;51.986;4.468;2022-10-28T03:17:46;101681.97;;;15.32;100.00
69528;BME280;57136;51.986;4.468;2022-10-28T03:20:11;101687.22;;;15.38;100.00
69528;BME280;57136;51.986;4.468;2022-10-28T03:22:36;101685.44;;;15.45;100.00
69528;BME280;57136;51.986;4.468;2022-10-28T03:25:02;101686.31;;;15.47;100.00
69528;BME280;57136;51.986;4.468;2022-10-28T03:27:28;101688.97;;;15.42;100.00
69528;BME280;57136;51.986;4.468;2022-10-28T03:29:53;101684.59;;;15.41;100.00
69528;BME280;57136;51.986;4.468;2022-10-28T03:32:19;101674.06;;;15.42;100.00
69528;BME280;57136;51.986;4.468;2022-10-28T03:34:44;101677.56;;;15.40;100.00
69528;BME280;57136;51.986;4.468;2022-10-28T03:37:11;101676.72;;;15.38;100.00
69528;BME280;57136;51.986;4.468;2022-10-28T03:39:36;101676.69;;;15.39;100.00
69528;BME280;57136;51.986;4.468;2022-10-28T03:42:02;101675.84;;;15.33;100.00
69528;BME280;57136;51.986;4.468;2022-10-28T03:44:27;101676.72;;;15.32;100.00
69528;BME280;57136;51.986;4.468;2022-10-28T03:46:52;101680.19;;;15.38;100.00
69528;BME280;57136;51.986;4.468;2022-10-28T03:49:18;101678.44;;;15.42;100.00
69528;BME280;57136;51.986;4.468;2022-10-28T03:51:43;101676.66;;;15.53;100.00
69528;BME280;57136;51.986;4.468;2022-10-28T03:54:08;101667.91;;;15.53;100.00
69528;BME280;57136;51.986;4.468;2022-10-28T03:56:34;101661.75;;;15.58;100.00
69528;BME280;57136;51.986;4.468;2022-10-28T03:58:59;101658.19;;;15.80;100.00
69528;BME280;57136;51.986;4.468;2022-10-28T04:01:24;101646.78;;;15.84;100.00
69528;BME280;57136;51.986;4.468;2022-10-28T04:03:50;101659.06;;;15.86;100.00
69528;BME280;57136;51.986;4.468;2022-10-28T04:06:15;101655.50;;;16.00;100.00
69528;BME280;57136;51.986;4.468;2022-10-28T04:08:41;101662.50;;;16.02;100.00
69528;BME280;57136;51.986;4.468;2022-10-28T04:11:06;101664.19;;;16.11;100.00
69528;BME280;57136;51.986;4.468;2022-10-28T04:13:32;101655.41;;;16.18;100.00
69528;BME280;57136;51.986;4.468;2022-10-28T04:15:57;101658.00;;;16.25;100.00
69528;BME280;57136;51.986;4.468;2022-10-28T04:18:23;101650.97;;;16.24;100.00
69528;BME280;57136;51.986;4.468;2022-10-28T04:20:48;101648.25;;;16.36;100.00
69528;BME280;57136;51.986;4.468;2022-10-28T04:23:15;101650.00;;;16.40;100.00
69528;BME280;57136;51.986;4.468;2022-10-28T04:25:42;101655.19;;;16.53;100.00
69528;BME280;57136;51.986;4.468;2022-10-28T04:28:07;101641.16;;;16.49;100.00
69528;BME280;57136;51.986;4.468;2022-10-28T04:30:33;101652.47;;;16.59;100.00
69528;BME280;57136;51.986;4.468;2022-10-28T04:32:58;101645.50;;;16.53;100.00
69528;BME280;57136;51.986;4.468;2022-10-28T04:35:23;101643.78;;;16.51;100.00
69528;BME280;57136;51.986;4.468;2022-10-28T04:37:49;101647.28;;;16.48;100.00
69528;BME280;57136;51.986;4.468;2022-10-28T04:40:14;101656.06;;;16.47;100.00
69528;BME280;57136;51.986;4.468;2022-10-28T04:42:40;101658.75;;;16.42;100.00
69528;BME280;57136;51.986;4.468;2022-10-28T04:45:07;101667.41;;;16.55;100.00
69528;BME280;57136;51.986;4.468;2022-10-28T04:47:32;101672.59;;;16.66;100.00
69528;BME280;57136;51.986;4.468;2022-10-28T04:49:58;101678.66;;;16.77;100.00
69528;BME280;57136;51.986;4.468;2022-10-28T04:52:23;101668.16;;;16.74;100.00
69528;BME280;57136;51.986;4.468;2022-10-28T04:54:48;101658.50;;;16.75;100.00
69528;BME280;57136;51.986;4.468;2022-10-28T04:57:14;101646.19;;;16.82;100.00
69528;BME280;57136;51.986;4.468;2022-10-28T04:59:39;101647.91;;;16.83;100.00
69528;BME280;57136;51.986;4.468;2022-10-28T05:02:04;101646.97;;;16.90;100.00
69528;BME280;57136;51.986;4.468;2022-10-28T05:04:30;101647.84;;;16.90;100.00
69528;BME280;57136;51.986;4.468;2022-10-28T05:06:55;101652.22;;;16.91;100.00
69528;BME280;57136;51.986;4.468;2022-10-28T05:09:20;101647.03;;;16.84;100.00
69528;BME280;57136;51.986;4.468;2022-10-28T05:11:45;101642.56;;;16.92;100.00
69528;BME280;57136;51.986;4.468;2022-10-28T05:14:11;101634.63;;;17.00;100.00
69528;BME280;57136;51.986;4.468;2022-10-28T05:16:36;101646.94;;;16.95;100.00
69528;BME280;57136;51.986;4.468;2022-10-28T05:19:01;101640.88;;;16.85;100.00
69528;BME280;57136;51.986;4.468;2022-10-28T05:21:26;101638.16;;;16.97;100.00
69528;BME280;57136;51.986;4.468;2022-10-28T05:23:52;101645.13;;;17.04;100.00
69528;BME280;57136;51.986;4.468;2022-10-28T05:26:17;101645.06;;;17.11;100.00
69528;BME280;57136;51.986;4.468;2022-10-28T05:28:43;101649.31;;;17.24;100.00
69528;BME280;57136;51.986;4.468;2022-10-28T05:31:09;101651.06;;;17.22;100.00
69528;BME280;57136;51.986;4.468;2022-10-28T05:33:34;101645.09;;;17.07;100.00
69528;BME280;57136;51.986;4.468;2022-10-28T05:36:00;101652.88;;;17.17;100.00
69528;BME280;57136;51.986;4.468;2022-10-28T05:38:26;101646.84;;;17.09;100.00
69528;BME280;57136;51.986;4.468;2022-10-28T05:40:51;101645.94;;;17.10;100.00
69528;BME280;57136;51.986;4.468;2022-10-28T05:43:17;101640.69;;;17.10;100.00
69528;BME280;57136;51.986;4.468;2022-10-28T05:45:42;101649.38;;;17.15;100.00
69528;BME280;57136;51.986;4.468;2022-10-28T05:48:07;101633.72;;;17.01;100.00
69528;BME280;57136;51.986;4.468;2022-10-28T05:50:32;101646.88;;;17.01;100.00
69528;BME280;57136;51.986;4.468;2022-10-28T05:52:58;101634.69;;;16.90;100.00
69528;BME280;57136;51.986;4.468;2022-10-28T05:55:25;101638.25;;;16.85;100.00
69528;BME280;57136;51.986;4.468;2022-10-28T05:57:53;101639.97;;;16.87;100.00
69528;BME280;57136;51.986;4.468;2022-10-28T06:00:21;101632.09;;;16.84;100.00
69528;BME280;57136;51.986;4.468;2022-10-28T06:02:46;101627.66;;;16.89;100.00
69528;BME280;57136;51.986;4.468;2022-10-28T06:05:12;101629.50;;;16.78;100.00
69528;BME280;57136;51.986;4.468;2022-10-28T06:07:39;101629.63;;;16.64;100.00
69528;BME280;57136;51.986;4.468;2022-10-28T06:10:05;101629.69;;;16.59;100.00
69528;BME280;57136;51.986;4.468;2022-10-28T06:12:31;101625.25;;;16.63;100.00
69528;BME280;57136;51.986;4.468;2022-10-28T06:14:56;101633.25;;;16.54;100.00
69528;BME280;57136;51.986;4.468;2022-10-28T06:17:22;101625.38;;;16.46;100.00
69528;BME280;57136;51.986;4.468;2022-10-28T06:19:47;101630.66;;;16.44;100.00
69528;BME280;57136;51.986;4.468;2022-10-28T06:22:13;101632.41;;;16.47;100.00
69528;BME280;57136;51.986;4.468;2022-10-28T06:24:38;101621.06;;;16.37;100.00
69528;BME280;57136;51.986;4.468;2022-10-28T06:27:03;101625.44;;;16.41;100.00
69528;BME280;57136;51.986;4.468;2022-10-28T06:29:29;101624.56;;;16.41;100.00
69528;BME280;57136;51.986;4.468;2022-10-28T06:31:56;101619.31;;;16.41;100.00
69528;BME280;57136;51.986;4.468;2022-10-28T06:34:21;101620.97;;;16.51;100.00
69528;BME280;57136;51.986;4.468;2022-10-28T06:36:47;101624.56;;;16.39;100.00
69528;BME280;57136;51.986;4.468;2022-10-28T06:39:12;101623.63;;;16.48;100.00
69528;BME280;57136;51.986;4.468;2022-10-28T06:41:37;101620.94;;;16.54;100.00
69528;BME280;57136;51.986;4.468;2022-10-28T06:44:03;101622.75;;;16.46;100.00
69528;BME280;57136;51.986;4.468;2022-10-28T06:46:28;101632.38;;;16.52;100.00
69528;BME280;57136;51.986;4.468;2022-10-28T06:48:54;101623.59;;;16.51;100.00
69528;BME280;57136;51.986;4.468;2022-10-28T06:51:19;101636.78;;;16.50;100.00
69528;BME280;57136;51.986;4.468;2022-10-28T06:53:51;101634.94;;;16.59;100.00
69528;BME280;57136;51.986;4.468;2022-10-28T06:56:17;101641.88;;;16.70;100.00
69528;BME280;57136;51.986;4.468;2022-10-28T06:58:42;101642.69;;;16.78;100.00
69528;BME280;57136;51.986;4.468;2022-10-28T07:01:08;101648.03;;;16.69;100.00
69528;BME280;57136;51.986;4.468;2022-10-28T07:03:33;101646.19;;;16.78;100.00
69528;BME280;57136;51.986;4.468;2022-10-28T07:05:59;101646.06;;;16.92;100.00
69528;BME280;57136;51.986;4.468;2022-10-28T07:08:27;101645.22;;;16.89;100.00
69528;BME280;57136;51.986;4.468;2022-10-28T07:10:57;101645.25;;;16.84;100.00
69528;BME280;57136;51.986;4.468;2022-10-28T07:13:24;101652.19;;;16.99;100.00
69528;BME280;57136;51.986;4.468;2022-10-28T07:15:54;101659.13;;;17.08;100.00
69528;BME280;57136;51.986;4.468;2022-10-28T07:18:20;101659.09;;;17.11;100.00
69528;BME280;57136;51.986;4.468;2022-10-28T07:20:46;101652.91;;;17.15;100.00
69528;BME280;57136;51.986;4.468;2022-10-28T07:23:12;101643.97;;;17.30;100.00
69528;BME280;57136;51.986;4.468;2022-10-28T07:25:37;101648.28;;;17.36;100.00
69528;BME280;57136;51.986;4.468;2022-10-28T07:28:03;101650.78;;;17.51;100.00
69528;BME280;57136;51.986;4.468;2022-10-28T07:30:28;101650.66;;;17.62;100.00
69528;BME280;57136;51.986;4.468;2022-10-28T07:32:54;101660.31;;;17.63;100.00
69528;BME280;57136;51.986;4.468;2022-10-28T07:35:20;101664.66;;;17.67;100.00
69528;BME280;57136;51.986;4.468;2022-10-28T07:37:46;101673.25;;;17.82;100.00
69528;BME280;57136;51.986;4.468;2022-10-28T07:40:12;101669.69;;;17.85;98.37
69528;BME280;57136;51.986;4.468;2022-10-28T07:42:37;101672.22;;;17.95;99.93
69528;BME280;57136;51.986;4.468;2022-10-28T07:45:03;101672.94;;;18.07;99.27
69528;BME280;57136;51.986;4.468;2022-10-28T07:47:29;101674.53;;;18.20;98.44
69528;BME280;57136;51.986;4.468;2022-10-28T07:49:54;101673.50;;;18.31;97.47
69528;BME280;57136;51.986;4.468;2022-10-28T07:52:20;101676.94;;;18.36;96.14
69528;BME280;57136;51.986;4.468;2022-10-28T07:54:45;101678.72;;;18.35;95.60
69528;BME280;57136;51.986;4.468;2022-10-28T07:57:10;101669.00;;;18.39;95.81
69528;BME280;57136;51.986;4.468;2022-10-28T07:59:36;101675.94;;;18.45;95.66
69528;BME280;57136;51.986;4.468;2022-10-28T08:02:01;101679.66;;;18.30;96.24
69528;BME280;57136;51.986;4.468;2022-10-28T08:04:30;101674.06;;;18.53;95.72
69528;BME280;57136;51.986;4.468;2022-10-28T08:06:56;101674.22;;;18.42;95.06
69528;BME280;57136;51.986;4.468;2022-10-28T08:09:22;101674.09;;;18.51;95.63
69528;BME280;57136;51.986;4.468;2022-10-28T08:11:47;101674.78;;;18.64;94.75
69528;BME280;57136;51.986;4.468;2022-10-28T08:14:13;101676.53;;;18.64;94.66
69528;BME280;57136;51.986;4.468;2022-10-28T08:16:38;101665.97;;;18.65;94.50
69528;BME280;57136;51.986;4.468;2022-10-28T08:19:03;101672.81;;;18.77;94.01
69528;BME280;57136;51.986;4.468;2022-10-28T08:21:28;101677.00;;;18.87;93.18
69528;BME280;57136;51.986;4.468;2022-10-28T08:23:54;101670.72;;;18.98;92.75
69528;BME280;57136;51.986;4.468;2022-10-28T08:26:20;101668.72;;;19.11;90.73
69528;BME280;57136;51.986;4.468;2022-10-28T08:28:45;101679.00;;;19.28;89.42
69528;BME280;57136;51.986;4.468;2022-10-28T08:31:10;101671.84;;;19.33;89.02
69528;BME280;57136;51.986;4.468;2022-10-28T08:33:41;101677.63;;;19.54;87.44
69528;BME280;57136;51.986;4.468;2022-10-28T08:36:10;101676.69;;;19.56;87.40
69528;BME280;57136;51.986;4.468;2022-10-28T08:38:36;101684.59;;;19.58;86.70
69528;BME280;57136;51.986;4.468;2022-10-28T08:41:28;101675.56;;;19.68;86.35
69528;BME280;57136;51.986;4.468;2022-10-28T08:49:55;101666.81;;;19.65;85.18
69528;BME280;57136;51.986;4.468;2022-10-28T08:52:33;101668.56;;;19.66;85.43
69528;BME280;57136;51.986;4.468;2022-10-28T08:55:16;101672.78;;;19.74;84.67
69528;BME280;57136;51.986;4.468;2022-10-28T08:57:47;101665.69;;;19.78;84.91
69528;BME280;57136;51.986;4.468;2022-10-28T09:00:29;101664.75;;;19.81;84.40
69528;BME280;57136;51.986;4.468;2022-10-28T09:03:12;101681.34;;;19.89;84.12
69528;BME280;57136;51.986;4.468;2022-10-28T09:05:42;101679.38;;;19.99;84.36
69528;BME280;57136;51.986;4.468;2022-10-28T09:22:14;101684.75;;;20.35;82.07
69528;BME280;57136;51.986;4.468;2022-10-28T09:25:01;101675.88;;;20.36;82.44
69528;BME280;57136;51.986;4.468;2022-10-28T09:27:57;101669.56;;;20.43;81.44
69528;BME280;57136;51.986;4.468;2022-10-28T09:35:27;101665.66;;;20.60;80.89
69528;BME280;57136;51.986;4.468;2022-10-28T09:38:04;101668.69;;;20.80;80.90
69528;BME280;57136;51.986;4.468;2022-10-28T09:40:32;101666.16;;;20.74;79.94
69528;BME280;57136;51.986;4.468;2022-10-28T09:43:21;101669.38;;;20.89;79.47
69528;BME280;57136;51.986;4.468;2022-10-28T09:45:49;101671.81;;;20.97;79.47
69528;BME280;57136;51.986;4.468;2022-10-28T09:48:23;101678.03;;;20.95;79.37
69528;BME280;57136;51.986;4.468;2022-10-28T09:50:51;101662.44;;;21.18;78.85
69528;BME280;57136;51.986;4.468;2022-10-28T09:53:30;101648.88;;;21.29;78.75
69528;BME280;57136;51.986;4.468;2022-10-28T09:55:57;101652.38;;;21.62;77.40
69528;BME280;57136;51.986;4.468;2022-10-28T09:58:22;101644.00;;;22.35;74.45
69528;BME280;57136;51.986;4.468;2022-10-28T10:00:48;101641.69;;;23.04;71.45
69528;BME280;57136;51.986;4.468;2022-10-28T10:03:15;101638.59;;;23.42;69.18
69528;BME280;57136;51.986;4.468;2022-10-28T10:05:44;101644.09;;;23.85;65.56
69528;BME280;57136;51.986;4.468;2022-10-28T10:08:13;101651.31;;;23.82;65.81
69528;BME280;57136;51.986;4.468;2022-10-28T10:11:03;101654.06;;;24.04;65.80
69528;BME280;57136;51.986;4.468;2022-10-28T10:13:34;101666.03;;;23.92;65.44
69528;BME280;57136;51.986;4.468;2022-10-28T10:16:05;101665.94;;;24.17;65.22
69528;BME280;57136;51.986;4.468;2022-10-28T10:18:34;101668.03;;;23.85;66.58
69528;BME280;57136;51.986;4.468;2022-10-28T10:21:00;101674.88;;;23.45;66.81
69528;BME280;57136;51.986;4.468;2022-10-28T10:26:10;101674.13;;;23.14;69.68
69528;BME280;57136;51.986;4.468;2022-10-28T10:28:39;101676.53;;;22.70;71.00
69528;BME280;57136;51.986;4.468;2022-10-28T10:31:15;101669.91;;;22.56;71.52
69528;BME280;57136;51.986;4.468;2022-10-28T10:33:42;101668.25;;;22.52;72.43
69528;BME280;57136;51.986;4.468;2022-10-28T10:36:13;101678.38;;;22.39;72.47
69528;BME280;57136;51.986;4.468;2022-10-28T10:38:53;101671.81;;;22.23;73.14
69528;BME280;57136;51.986;4.468;2022-10-28T10:41:37;101682.72;;;22.42;72.24
69528;BME280;57136;51.986;4.468;2022-10-28T10:47:13;101674.94;;;22.36;73.02
69528;BME280;57136;51.986;4.468;2022-10-28T10:49:42;101676.69;;;22.37;72.99
69528;BME280;57136;51.986;4.468;2022-10-28T10:52:20;101675.25;;;22.26;73.01
69528;BME280;57136;51.986;4.468;2022-10-28T10:55:04;101672.53;;;22.28;73.08
69528;BME280;57136;51.986;4.468;2022-10-28T10:57:32;101665.94;;;22.41;72.19
69528;BME280;57136;51.986;4.468;2022-10-28T10:59:58;101675.44;;;22.49;72.17
69528;BME280;57136;51.986;4.468;2022-10-28T11:02:33;101675.28;;;22.25;72.56
69528;BME280;57136;51.986;4.468;2022-10-28T11:05:03;101680.66;;;22.23;72.70
69528;BME280;57136;51.986;4.468;2022-10-28T11:07:31;101689.63;;;22.19;72.05
69528;BME280;57136;51.986;4.468;2022-10-28T11:09:57;101684.63;;;22.38;71.79
69528;BME280;57136;51.986;4.468;2022-10-28T11:12:26;101684.22;;;22.22;71.00
69528;BME280;57136;51.986;4.468;2022-10-28T11:14:55;101685.91;;;22.25;71.11
69528;BME280;57136;51.986;4.468;2022-10-28T11:17:31;101685.56;;;22.36;71.01
69528;BME280;57136;51.986;4.468;2022-10-28T11:19:59;101690.88;;;22.36;71.81
69528;BME280;57136;51.986;4.468;2022-10-28T11:28:25;101714.09;;;22.59;70.84
69528;BME280;57136;51.986;4.468;2022-10-28T11:33:45;101706.38;;;22.51;70.79
69528;BME280;57136;51.986;4.468;2022-10-28T11:36:22;101699.78;;;22.63;70.37
69528;BME280;57136;51.986;4.468;2022-10-28T11:41:48;101693.03;;;22.53;70.41
69528;BME280;57136;51.986;4.468;2022-10-28T11:55:50;101704.13;;;22.66;70.01
69528;BME280;57136;51.986;4.468;2022-10-28T11:58:32;101718.50;;;22.58;70.21
69528;BME280;57136;51.986;4.468;2022-10-28T12:04:31;101699.78;;;22.63;70.86
69528;BME280;57136;51.986;4.468;2022-10-28T12:12:20;101707.56;;;22.69;70.20
69528;BME280;57136;51.986;4.468;2022-10-28T12:17:40;101712.41;;;22.83;70.57
69528;BME280;57136;51.986;4.468;2022-10-28T12:20:19;101713.25;;;22.85;69.86
69528;BME280;57136;51.986;4.468;2022-10-28T12:22:53;101722.63;;;22.96;70.08
69528;BME280;57136;51.986;4.468;2022-10-28T12:25:23;101731.41;;;22.98;70.13
69528;BME280;57136;51.986;4.468;2022-10-28T12:27:53;101731.22;;;23.04;68.93
69528;BME280;57136;51.986;4.468;2022-10-28T12:30:28;101735.53;;;22.81;70.04
69528;BME280;57136;51.986;4.468;2022-10-28T12:33:06;101739.00;;;22.55;71.02
69528;BME280;57136;51.986;4.468;2022-10-28T12:35:39;101734.50;;;22.85;70.90
69528;BME280;57136;51.986;4.468;2022-10-28T12:38:14;101748.81;;;23.08;70.50
69528;BME280;57136;51.986;4.468;2022-10-28T12:41:03;101748.38;;;23.20;69.04
69528;BME280;57136;51.986;4.468;2022-10-28T12:43:41;101750.38;;;22.87;70.78
69528;BME280;57136;51.986;4.468;2022-10-28T12:46:17;101747.38;;;22.98;70.58
69528;BME280;57136;51.986;4.468;2022-10-28T12:48:57;101758.63;;;22.79;71.62
69528;BME280;57136;51.986;4.468;2022-10-28T12:51:29;101754.22;;;22.50;73.05
69528;BME280;57136;51.986;4.468;2022-10-28T12:54:14;101757.22;;;22.37;73.15
69528;BME280;57136;51.986;4.468;2022-10-28T12:56:48;101760.63;;;22.12;74.74
69528;BME280;57136;51.986;4.468;2022-10-28T12:59:34;101750.84;;;22.14;74.86
69528;BME280;57136;51.986;4.468;2022-10-28T13:02:02;101764.63;;;22.26;74.56
69528;BME280;57136;51.986;4.468;2022-10-28T13:04:29;101766.38;;;22.57;73.63
69528;BME280;57136;51.986;4.468;2022-10-28T13:07:12;101760.50;;;22.47;73.82
69528;BME280;57136;51.986;4.468;2022-10-28T13:12:58;101766.66;;;23.31;71.44
69528;BME280;57136;51.986;4.468;2022-10-28T13:18:23;101766.50;;;23.36;71.70
69528;BME280;57136;51.986;4.468;2022-10-28T13:21:08;101772.53;;;23.67;70.52
69528;BME280;57136;51.986;4.468;2022-10-28T13:23:46;101788.44;;;23.68;69.35
69528;BME280;57136;51.986;4.468;2022-10-28T13:26:28;101793.56;;;23.22;71.36
69528;BME280;57136;51.986;4.468;2022-10-28T13:28:56;101787.69;;;23.11;70.61
69528;BME280;57136;51.986;4.468;2022-10-28T13:31:44;101794.84;;;22.82;72.41
69528;BME280;57136;51.986;4.468;2022-10-28T13:34:15;101806.56;;;22.46;74.48
69528;BME280;57136;51.986;4.468;2022-10-28T13:36:46;101800.22;;;22.80;73.10
69528;BME280;57136;51.986;4.468;2022-10-28T13:39:39;101790.25;;;22.28;75.64
69528;BME280;57136;51.986;4.468;2022-10-28T13:44:51;101793.72;;;22.60;74.98
69528;BME280;57136;51.986;4.468;2022-10-28T13:47:24;101797.09;;;22.36;75.57
69528;BME280;57136;51.986;4.468;2022-10-28T13:52:34;101807.81;;;22.33;76.21
69528;BME280;57136;51.986;4.468;2022-10-28T13:55:20;101804.19;;;22.04;77.34
69528;BME280;57136;51.986;4.468;2022-10-28T13:57:49;101805.66;;;22.15;77.59
69528;BME280;57136;51.986;4.468;2022-10-28T14:02:57;101804.59;;;21.90;79.01
69528;BME280;57136;51.986;4.468;2022-10-28T14:08:03;101789.81;;;21.81;79.11
69528;BME280;57136;51.986;4.468;2022-10-28T14:10:31;101791.97;;;21.66;80.39
69528;BME280;57136;51.986;4.468;2022-10-28T14:13:03;101798.19;;;21.65;80.45
69528;BME280;57136;51.986;4.468;2022-10-28T14:15:31;101803.97;;;21.45;81.18
69528;BME280;57136;51.986;4.468;2022-10-28T14:44:09;101826.09;;;21.08;83.18
69528;BME280;57136;51.986;4.468;2022-10-28T14:49:30;101835.66;;;20.77;85.32
69528;BME280;57136;51.986;4.468;2022-10-28T14:51:57;101842.88;;;21.08;84.13
69528;BME280;57136;51.986;4.468;2022-10-28T14:54:37;101850.06;;;21.03;84.30
69528;BME280;57136;51.986;4.468;2022-10-28T14:57:09;101852.00;;;20.97;85.10
69528;BME280;57136;51.986;4.468;2022-10-28T14:59:45;101860.97;;;20.91;84.67
69528;BME280;57136;51.986;4.468;2022-10-28T15:02:12;101867.53;;;21.12;84.39
69528;BME280;57136;51.986;4.468;2022-10-28T15:04:41;101870.22;;;21.10;84.38
69528;BME280;57136;51.986;4.468;2022-10-28T15:07:13;101869.91;;;21.23;84.42
69528;BME280;57136;51.986;4.468;2022-10-28T15:09:40;101868.03;;;20.90;86.08
69528;BME280;57136;51.986;4.468;2022-10-28T15:12:10;101869.91;;;20.85;86.29
69528;BME280;57136;51.986;4.468;2022-10-28T15:14:42;101868.47;;;21.09;85.57
69528;BME280;57136;51.986;4.468;2022-10-28T15:17:21;101871.84;;;21.16;85.25